Time;durP1;ratioP1;P1;durP2;ratioP2;P2;SDS_P1;SDS_P2;PMS_P1;PMS_P2;Temp;Humidity;BMP_temperature;BMP_pressure;BME280_temperature;BME280_humidity;BME280_pressure;Samples;Min_cycle;Max_cycle;Signal;HPM_P1;HPM_P2
2023/05/30 00:01:23;;;;;;;;;5.67;5.67;;;;;;;;4970756;28;45303;-77
2023/05/30 00:03:49;;;;;;;;;4.00;4.00;;;;;;;;4960982;28;45385;-79
2023/05/30 00:06:14;;;;;;;;;8.00;5.00;;;;;;;;4961897;28;45500;-80
2023/05/30 00:08:40;;;;;;;;;12.00;5.00;;;;;;;;4960352;28;45344;-79
2023/05/30 00:11:06;;;;;;;;;9.33;4.33;;;;;;;;4956828;28;45006;-79
2023/05/30 00:13:32;;;;;;;;;4.67;4.67;;;;;;;;4957372;28;45579;-78
2023/05/30 00:15:58;;;;;;;;;7.67;6.33;;;;;;;;4963055;28;45466;-76
2023/05/30 00:18:23;;;;;;;;;8.00;5.67;;;;;;;;4962054;28;45283;-79
2023/05/30 00:20:49;;;;;;;;;4.00;4.00;;;;;;;;4969636;28;45329;-79
2023/05/30 00:23:15;;;;;;;;;5.67;4.00;;;;;;;;4955686;28;45556;-79
2023/05/30 00:25:40;;;;;;;;;4.00;4.00;;;;;;;;4964080;28;45432;-79
2023/05/30 00:28:07;;;;;;;;;8.33;5.00;;;;;;;;4964525;28;45337;-78
2023/05/30 00:30:33;;;;;;;;;7.33;5.33;;;;;;;;4974600;28;45385;-78
2023/05/30 00:32:58;;;;;;;;;4.67;4.33;;;;;;;;4961014;28;45533;-78
2023/05/30 00:35:23;;;;;;;;;9.67;8.00;;;;;;;;4961722;28;47170;-78
2023/05/30 00:37:49;;;;;;;;;3.67;3.67;;;;;;;;4985683;28;45323;-79
2023/05/30 00:40:14;;;;;;;;;1.67;1.67;;;;;;;;4978170;28;45470;-78
2023/05/30 00:42:39;;;;;;;;;8.00;5.00;;;;;;;;4968266;28;45201;-76
2023/05/30 00:45:05;;;;;;;;;12.00;8.33;;;;;;;;4963179;28;46506;-78
2023/05/30 00:47:31;;;;;;;;;8.33;4.67;;;;;;;;4977980;28;45314;-77
2023/05/30 00:49:56;;;;;;;;;9.67;7.67;;;;;;;;4977168;28;44786;-77
2023/05/30 00:52:21;;;;;;;;;8.00;8.00;;;;;;;;4973664;28;45390;-76
2023/05/30 00:54:50;;;;;;;;;9.67;8.33;;;;;;;;4970526;28;46903;-78
2023/05/30 00:57:15;;;;;;;;;13.00;8.00;;;;;;;;4979199;28;45425;-78
2023/05/30 00:59:41;;;;;;;;;15.00;11.33;;;;;;;;4962723;28;45545;-77
2023/05/30 01:02:06;;;;;;;;;11.33;11.33;;;;;;;;4970398;28;45353;-77
2023/05/30 01:04:32;;;;;;;;;9.67;7.33;;;;;;;;4988639;28;46582;-77
2023/05/30 01:06:58;;;;;;;;;5.00;3.67;;;;;;;;4971916;28;45785;-78
2023/05/30 01:09:23;;;;;;;;;8.33;6.33;;;;;;;;4968884;28;45392;-77
2023/05/30 01:12:08;;;;;;;;;8.00;6.67;;;;;;;;4973617;28;45386;-79
2023/05/30 01:14:42;;;;;;;;;7.00;6.67;;;;;;;;4963255;28;46200;-78
2023/05/30 01:17:17;;;;;;;;;8.00;4.67;;;;;;;;4978767;28;44749;-78
2023/05/30 01:20:05;;;;;;;;;6.00;5.33;;;;;;;;4960647;28;45866;-78
2023/05/30 01:22:37;;;;;;;;;8.33;6.33;;;;;;;;4978386;28;45179;-79
2023/05/30 01:25:10;;;;;;;;;5.33;5.33;;;;;;;;4976471;28;46244;-77
2023/05/30 01:27:54;;;;;;;;;8.33;5.33;;;;;;;;4977964;28;44779;-79
2023/05/30 01:30:20;;;;;;;;;8.00;7.00;;;;;;;;4965166;28;45934;-79
2023/05/30 01:32:46;;;;;;;;;11.67;8.00;;;;;;;;4969922;28;45464;-77
2023/05/30 01:35:23;;;;;;;;;5.00;5.00;;;;;;;;4978747;28;45409;-77
2023/05/30 01:37:49;;;;;;;;;9.00;7.00;;;;;;;;4973823;28;45876;-77
2023/05/30 01:40:20;;;;;;;;;8.67;6.00;;;;;;;;4956041;28;45892;-77
2023/05/30 01:42:48;;;;;;;;;7.33;6.33;;;;;;;;4968463;28;44969;-78
2023/05/30 01:45:20;;;;;;;;;7.67;5.00;;;;;;;;4979659;28;45364;-77
2023/05/30 01:47:48;;;;;;;;;8.33;7.00;;;;;;;;4974600;28;45446;-79
2023/05/30 01:50:16;;;;;;;;;9.00;7.00;;;;;;;;4973819;28;45481;-79
2023/05/30 01:52:43;;;;;;;;;7.00;5.00;;;;;;;;4992453;28;45545;-79
2023/05/30 01:55:10;;;;;;;;;7.67;6.33;;;;;;;;4976563;28;46740;-78
2023/05/30 01:57:39;;;;;;;;;6.33;4.67;;;;;;;;4959825;28;45302;-78
2023/05/30 02:00:05;;;;;;;;;8.33;6.00;;;;;;;;4981598;28;45302;-78
2023/05/30 02:02:31;;;;;;;;;5.33;3.33;;;;;;;;5002326;28;46126;-80
2023/05/30 02:04:57;;;;;;;;;5.67;4.00;;;;;;;;4973175;28;46470;-79
2023/05/30 02:07:22;;;;;;;;;6.33;3.00;;;;;;;;4974146;28;45778;-79
2023/05/30 02:09:48;;;;;;;;;9.00;6.33;;;;;;;;4975863;28;44714;-79
2023/05/30 02:12:13;;;;;;;;;8.00;6.33;;;;;;;;4977783;28;45388;-79
2023/05/30 02:14:38;;;;;;;;;7.33;5.33;;;;;;;;4972619;28;46590;-79
2023/05/30 02:17:05;;;;;;;;;9.33;4.00;;;;;;;;4978896;28;44914;-78
2023/05/30 02:19:30;;;;;;;;;1.33;1.33;;;;;;;;4969580;28;45366;-81
2023/05/30 02:21:56;;;;;;;;;7.67;6.33;;;;;;;;4966255;28;45435;-78
2023/05/30 02:24:22;;;;;;;;;9.00;4.33;;;;;;;;4975523;28;45343;-78
2023/05/30 02:26:48;;;;;;;;;4.00;4.00;;;;;;;;4973101;28;45346;-78
2023/05/30 02:29:13;;;;;;;;;7.33;6.67;;;;;;;;4978839;28;45357;-80
2023/05/30 02:31:39;;;;;;;;;4.33;2.00;;;;;;;;4985105;28;45278;-78
2023/05/30 02:34:04;;;;;;;;;12.67;5.33;;;;;;;;4972978;28;46802;-76
2023/05/30 02:36:30;;;;;;;;;6.67;6.33;;;;;;;;4977343;28;44801;-79
2023/05/30 02:38:55;;;;;;;;;8.67;5.33;;;;;;;;4987799;28;45251;-80
2023/05/30 02:41:22;;;;;;;;;8.33;7.33;;;;;;;;4966759;28;45282;-79
2023/05/30 02:43:48;;;;;;;;;2.00;2.00;;;;;;;;4961521;28;47382;-79
2023/05/30 02:46:13;;;;;;;;;7.67;7.67;;;;;;;;4975715;28;44817;-80
2023/05/30 02:48:38;;;;;;;;;10.33;5.00;;;;;;;;4960352;28;45803;-79
2023/05/30 02:51:04;;;;;;;;;5.00;4.00;;;;;;;;4955622;28;45730;-78
2023/05/30 02:53:29;;;;;;;;;5.00;4.00;;;;;;;;4973477;28;46354;-78
2023/05/30 02:55:56;;;;;;;;;7.67;4.67;;;;;;;;4990496;28;45352;-79
2023/05/30 02:58:21;;;;;;;;;4.00;4.00;;;;;;;;4978061;28;45389;-77
2023/05/30 03:00:47;;;;;;;;;6.67;5.00;;;;;;;;4972026;28;44743;-78
2023/05/30 03:03:13;;;;;;;;;4.67;4.67;;;;;;;;4987618;28;47123;-80
2023/05/30 03:05:38;;;;;;;;;5.00;3.33;;;;;;;;4984017;28;45571;-78
2023/05/30 03:08:05;;;;;;;;;10.67;6.00;;;;;;;;4988197;28;46303;-80
2023/05/30 03:10:30;;;;;;;;;8.33;7.67;;;;;;;;4980422;28;45262;-79
2023/05/30 03:12:55;;;;;;;;;4.67;2.67;;;;;;;;4961536;28;47005;-78
2023/05/30 03:15:21;;;;;;;;;3.33;3.33;;;;;;;;4964930;28;45717;-79
2023/05/30 03:17:47;;;;;;;;;4.67;4.67;;;;;;;;4986685;28;45406;-78
2023/05/30 03:20:14;;;;;;;;;9.00;6.67;;;;;;;;4981140;28;45685;-77
2023/05/30 03:22:40;;;;;;;;;6.00;5.33;;;;;;;;4976072;28;45695;-78
2023/05/30 03:25:06;;;;;;;;;7.67;6.33;;;;;;;;4969727;28;44975;-77
2023/05/30 03:27:31;;;;;;;;;7.00;5.67;;;;;;;;4971407;28;45344;-76
2023/05/30 03:29:57;;;;;;;;;8.33;4.67;;;;;;;;4964116;28;45257;-78
2023/05/30 03:32:22;;;;;;;;;6.00;4.33;;;;;;;;4971566;28;46274;-77
2023/05/30 03:34:47;;;;;;;;;4.00;4.00;;;;;;;;4976629;28;45638;-72
2023/05/30 03:37:13;;;;;;;;;7.67;5.00;;;;;;;;4957145;28;45588;-73
2023/05/30 03:39:38;;;;;;;;;7.00;6.00;;;;;;;;4958296;28;45472;-74
2023/05/30 03:42:03;;;;;;;;;7.67;7.67;;;;;;;;4952766;28;46715;-73
2023/05/30 03:44:28;;;;;;;;;9.67;7.00;;;;;;;;4953128;28;45593;-73
2023/05/30 03:46:54;;;;;;;;;6.00;3.33;;;;;;;;4960128;28;46368;-72
2023/05/30 03:49:19;;;;;;;;;5.67;4.00;;;;;;;;4950232;28;45453;-71
2023/05/30 03:51:45;;;;;;;;;5.33;5.33;;;;;;;;4955049;28;46012;-73
2023/05/30 03:54:10;;;;;;;;;9.67;4.33;;;;;;;;4960077;28;45370;-74
2023/05/30 03:56:35;;;;;;;;;25.00;21.67;;;;;;;;4964157;28;45819;-77
2023/05/30 03:59:01;;;;;;;;;4.33;4.33;;;;;;;;4957593;28;45458;-74
2023/05/30 04:01:27;;;;;;;;;8.33;6.33;;;;;;;;4958623;28;46975;-73
2023/05/30 04:03:53;;;;;;;;;6.00;3.33;;;;;;;;4953089;28;45516;-73
2023/05/30 04:06:18;;;;;;;;;8.33;5.33;;;;;;;;4963832;28;45830;-72
2023/05/30 04:08:44;;;;;;;;;8.33;8.33;;;;;;;;4977273;28;46271;-73
2023/05/30 04:11:09;;;;;;;;;3.33;3.33;;;;;;;;4964732;28;46130;-75
2023/05/30 04:13:35;;;;;;;;;5.67;5.67;;;;;;;;4962884;28;45634;-73
2023/05/30 04:16:00;;;;;;;;;5.67;3.00;;;;;;;;4955334;28;45721;-73
2023/05/30 04:18:26;;;;;;;;;9.33;7.33;;;;;;;;4952522;28;45615;-74
2023/05/30 04:20:51;;;;;;;;;11.00;5.67;;;;;;;;4944709;28;45441;-73
2023/05/30 04:23:17;;;;;;;;;10.67;9.67;;;;;;;;4970517;28;45678;-74
2023/05/30 04:25:44;;;;;;;;;7.33;7.33;;;;;;;;4968268;28;45461;-73
2023/05/30 04:28:09;;;;;;;;;7.67;4.33;;;;;;;;4979451;28;46542;-73
2023/05/30 04:30:34;;;;;;;;;5.67;5.33;;;;;;;;4958940;28;45951;-75
2023/05/30 04:33:00;;;;;;;;;9.33;5.33;;;;;;;;4956387;28;45444;-74
2023/05/30 04:35:25;;;;;;;;;4.00;3.00;;;;;;;;4956272;28;45265;-73
2023/05/30 04:37:53;;;;;;;;;3.33;1.33;;;;;;;;4950695;28;46646;-77
2023/05/30 04:40:19;;;;;;;;;5.67;3.00;;;;;;;;4957281;28;45523;-75
2023/05/30 04:42:51;;;;;;;;;10.33;7.00;;;;;;;;4967291;28;45374;-74
2023/05/30 04:45:16;;;;;;;;;7.33;4.00;;;;;;;;4946229;28;45759;-74
2023/05/30 04:47:45;;;;;;;;;9.33;6.00;;;;;;;;4952337;28;45267;-76
2023/05/30 04:50:10;;;;;;;;;7.67;4.67;;;;;;;;4953109;28;46081;-75
2023/05/30 04:52:35;;;;;;;;;8.67;5.33;;;;;;;;4952956;28;45366;-77
2023/05/30 04:55:01;;;;;;;;;9.00;4.67;;;;;;;;4962177;28;45733;-73
2023/05/30 04:57:26;;;;;;;;;3.00;3.00;;;;;;;;4952360;28;45500;-75
2023/05/30 04:59:55;;;;;;;;;9.33;4.00;;;;;;;;4952560;28;46811;-74
2023/05/30 05:02:20;;;;;;;;;5.33;3.67;;;;;;;;4952142;28;45771;-77
2023/05/30 05:04:46;;;;;;;;;8.67;7.67;;;;;;;;4952353;28;45773;-77
2023/05/30 05:07:11;;;;;;;;;6.67;3.00;;;;;;;;4961941;28;45911;-75
2023/05/30 05:09:36;;;;;;;;;5.00;3.00;;;;;;;;4941812;28;45347;-75
2023/05/30 05:12:03;;;;;;;;;3.00;2.00;;;;;;;;4936459;28;45422;-75
2023/05/30 05:14:28;;;;;;;;;5.00;4.00;;;;;;;;4950726;28;45770;-75
2023/05/30 05:16:53;;;;;;;;;7.00;3.67;;;;;;;;4959193;28;45613;-75
2023/05/30 05:19:19;;;;;;;;;5.33;5.33;;;;;;;;4951010;28;45444;-74
2023/05/30 05:21:44;;;;;;;;;7.00;4.00;;;;;;;;4950735;28;45969;-73
2023/05/30 05:24:09;;;;;;;;;6.00;3.00;;;;;;;;4948412;28;45657;-73
2023/05/30 05:26:35;;;;;;;;;7.33;4.67;;;;;;;;4950983;28;45584;-73
2023/05/30 05:29:00;;;;;;;;;8.00;6.00;;;;;;;;4953730;28;45707;-76
2023/05/30 05:31:26;;;;;;;;;9.00;5.00;;;;;;;;4948046;28;45899;-81
2023/05/30 05:33:51;;;;;;;;;8.67;4.00;;;;;;;;4946930;28;45515;-74
2023/05/30 05:36:16;;;;;;;;;5.33;4.00;;;;;;;;4950558;28;46097;-76
2023/05/30 05:38:41;;;;;;;;;8.33;5.00;;;;;;;;4950439;28;46477;-77
2023/05/30 05:41:07;;;;;;;;;5.00;4.33;;;;;;;;4948724;28;45810;-74
2023/05/30 05:43:32;;;;;;;;;3.00;3.00;;;;;;;;4948038;28;46171;-75
2023/05/30 05:46:00;;;;;;;;;7.00;3.00;;;;;;;;4951541;28;45538;-76
2023/05/30 05:48:25;;;;;;;;;5.67;4.00;;;;;;;;4952772;28;45749;-76
2023/05/30 05:50:51;;;;;;;;;9.33;6.00;;;;;;;;4967258;28;45675;-76
2023/05/30 05:53:16;;;;;;;;;6.67;4.00;;;;;;;;4955547;28;45801;-74
2023/05/30 05:55:41;;;;;;;;;3.33;2.33;;;;;;;;4957253;28;45522;-73
2023/05/30 05:58:07;;;;;;;;;5.33;4.33;;;;;;;;4947262;28;46252;-73
2023/05/30 06:00:33;;;;;;;;;9.67;7.33;;;;;;;;4947757;28;45974;-81
2023/05/30 06:02:59;;;;;;;;;10.33;5.00;;;;;;;;4944200;28;45389;-74
2023/05/30 06:05:24;;;;;;;;;6.00;2.00;;;;;;;;4957737;28;45491;-75
2023/05/30 06:07:50;;;;;;;;;6.00;4.33;;;;;;;;4956385;28;45786;-71
2023/05/30 06:10:15;;;;;;;;;4.00;4.00;;;;;;;;4951708;28;45460;-74
2023/05/30 06:12:40;;;;;;;;;5.33;3.00;;;;;;;;4950944;28;45445;-73
2023/05/30 06:15:06;;;;;;;;;5.33;4.00;;;;;;;;4951949;28;45786;-73
2023/05/30 06:17:31;;;;;;;;;4.33;3.00;;;;;;;;4948525;28;45821;-74
2023/05/30 06:19:56;;;;;;;;;3.50;1.00;;;;;;;;4950870;28;45634;-72
2023/05/30 06:22:22;;;;;;;;;5.67;3.67;;;;;;;;4948351;28;45755;-73
2023/05/30 06:24:48;;;;;;;;;3.67;3.00;;;;;;;;4940820;28;45530;-73
2023/05/30 06:27:13;;;;;;;;;6.50;3.50;;;;;;;;4941382;28;46272;-74
2023/05/30 06:29:38;;;;;;;;;4.00;4.00;;;;;;;;4955720;28;45500;-75
2023/05/30 06:32:04;;;;;;;;;5.50;3.00;;;;;;;;4946905;28;46296;-75
2023/05/30 06:34:29;;;;;;;;;4.50;4.50;;;;;;;;4944555;28;45394;-73
2023/05/30 06:36:55;;;;;;;;;7.25;6.00;;;;;;;;4947752;28;45752;-74
2023/05/30 06:39:20;;;;;;;;;6.50;5.00;;;;;;;;4946414;28;45522;-73
2023/05/30 06:41:46;;;;;;;;;5.75;4.00;;;;;;;;4950857;28;45305;-74
2023/05/30 06:44:11;;;;;;;;;6.00;5.67;;;;;;;;4944680;28;47020;-74
2023/05/30 06:46:36;;;;;;;;;5.25;4.00;;;;;;;;4944946;28;45326;-76
2023/05/30 06:49:02;;;;;;;;;6.00;4.50;;;;;;;;4940051;28;45942;-77
2023/05/30 06:51:27;;;;;;;;;3.50;2.00;;;;;;;;4940379;28;45433;-76
2023/05/30 06:53:53;;;;;;;;;6.00;4.00;;;;;;;;4941288;28;45444;-77
2023/05/30 06:56:47;;;;;;;;;;;;;;;;;;;;;
2023/05/30 06:59:07;;;;;;;;;4.75;3.00;;;;;;;;4938537;28;45516;-74
2023/05/30 07:01:33;;;;;;;;;4.50;2.00;;;;;;;;4940469;28;45560;-76
2023/05/30 07:03:58;;;;;;;;;7.25;4.50;;;;;;;;4947899;28;45764;-74
2023/05/30 07:06:23;;;;;;;;;6.25;3.00;;;;;;;;4953364;28;46037;-75
2023/05/30 07:08:49;;;;;;;;;6.25;5.00;;;;;;;;4954614;28;45744;-76
2023/05/30 07:11:14;;;;;;;;;8.00;4.25;;;;;;;;4949917;28;45901;-75
2023/05/30 07:13:39;;;;;;;;;5.00;5.00;;;;;;;;4941946;28;45629;-76
2023/05/30 07:16:05;;;;;;;;;6.25;3.50;;;;;;;;4953073;28;45635;-77
2023/05/30 07:18:30;;;;;;;;;6.00;4.75;;;;;;;;4949568;28;46146;-77
2023/05/30 07:20:56;;;;;;;;;3.00;3.00;;;;;;;;4943949;28;45388;-76
2023/05/30 07:23:22;;;;;;;;;5.50;3.00;;;;;;;;4953945;28;45741;-75
2023/05/30 07:25:47;;;;;;;;;4.50;3.00;;;;;;;;4951934;28;46946;-75
2023/05/30 07:28:12;;;;;;;;;5.25;3.50;;;;;;;;4952519;28;46277;-75
2023/05/30 07:30:37;;;;;;;;;5.25;3.25;;;;;;;;4957042;28;46001;-75
2023/05/30 07:33:03;;;;;;;;;3.00;2.50;;;;;;;;4946679;28;45799;-74
2023/05/30 07:35:28;;;;;;;;;4.25;3.50;;;;;;;;4952627;28;46695;-75
2023/05/30 07:37:53;;;;;;;;;4.50;3.75;;;;;;;;4949382;28;45487;-74
2023/05/30 07:40:19;;;;;;;;;3.25;2.00;;;;;;;;4953936;28;45752;-74
2023/05/30 07:42:47;;;;;;;;;6.25;4.50;;;;;;;;4951844;28;45795;-74
2023/05/30 07:45:12;;;;;;;;;4.50;3.50;;;;;;;;4949314;28;48077;-75
2023/05/30 07:47:37;;;;;;;;;7.25;6.50;;;;;;;;4953674;28;45744;-75
2023/05/30 07:50:03;;;;;;;;;7.50;3.75;;;;;;;;4957564;28;45696;-75
2023/05/30 07:52:28;;;;;;;;;4.00;1.00;;;;;;;;4946328;28;45318;-76
2023/05/30 07:54:53;;;;;;;;;7.00;5.00;;;;;;;;4958609;28;45759;-75
2023/05/30 07:57:18;;;;;;;;;6.25;3.50;;;;;;;;4952261;28;45723;-76
2023/05/30 07:59:44;;;;;;;;;5.75;4.75;;;;;;;;4944110;28;45398;-76
2023/05/30 08:02:10;;;;;;;;;4.00;4.00;;;;;;;;4946646;28;45843;-74
2023/05/30 08:04:35;;;;;;;;;7.25;5.00;;;;;;;;4953710;28;45698;-76
2023/05/30 08:07:02;;;;;;;;;7.25;6.25;;;;;;;;4946173;28;45688;-76
2023/05/30 08:09:28;;;;;;;;;4.00;2.75;;;;;;;;4951705;28;45910;-75
2023/05/30 08:11:54;;;;;;;;;10.00;3.50;;;;;;;;4952010;28;45926;-76
2023/05/30 08:14:19;;;;;;;;;5.75;2.75;;;;;;;;4950761;28;47085;-78
2023/05/30 08:16:44;;;;;;;;;6.00;4.75;;;;;;;;4953350;28;45756;-76
2023/05/30 08:19:10;;;;;;;;;3.25;3.25;;;;;;;;4947371;28;45830;-76
2023/05/30 08:21:46;;;;;;;;;3.25;3.00;;;;;;;;4953998;28;45500;-82
2023/05/30 08:24:15;;;;;;;;;3.00;3.00;;;;;;;;4944541;28;45835;-74
2023/05/30 08:26:41;;;;;;;;;3.25;3.00;;;;;;;;4951630;28;45400;-77
2023/05/30 08:29:06;;;;;;;;;5.25;4.00;;;;;;;;4952459;28;46327;-76
2023/05/30 08:31:32;;;;;;;;;7.00;4.00;;;;;;;;4954012;28;45375;-76
2023/05/30 08:33:57;;;;;;;;;6.50;4.00;;;;;;;;4951844;28;45912;-76
2023/05/30 08:36:22;;;;;;;;;4.25;3.00;;;;;;;;4953197;28;45616;-75
2023/05/30 08:38:54;;;;;;;;;5.00;3.25;;;;;;;;4962396;28;45844;-76
2023/05/30 08:41:20;;;;;;;;;5.50;3.00;;;;;;;;4951507;28;45829;-76
2023/05/30 08:43:45;;;;;;;;;4.00;2.50;;;;;;;;4950160;28;45713;-76
2023/05/30 08:46:12;;;;;;;;;8.50;4.50;;;;;;;;4953002;28;45314;-74
2023/05/30 08:48:38;;;;;;;;;3.75;2.75;;;;;;;;4952475;28;45420;-75
2023/05/30 08:51:05;;;;;;;;;3.00;3.00;;;;;;;;4953257;28;45714;-75
2023/05/30 08:53:32;;;;;;;;;3.00;3.00;;;;;;;;4954391;28;46547;-76
2023/05/30 08:56:01;;;;;;;;;3.25;3.00;;;;;;;;4961646;28;45581;-77
2023/05/30 08:58:29;;;;;;;;;5.00;2.50;;;;;;;;4950387;28;45731;-75
2023/05/30 09:00:54;;;;;;;;;5.50;3.25;;;;;;;;4943854;28;45569;-77
2023/05/30 09:03:22;;;;;;;;;6.75;6.00;;;;;;;;4951947;28;45953;-74
2023/05/30 09:05:49;;;;;;;;;4.50;2.75;;;;;;;;4952620;28;45623;-74
2023/05/30 09:08:15;;;;;;;;;7.00;4.25;;;;;;;;4961318;28;45739;-74
2023/05/30 09:10:48;;;;;;;;;7.25;4.25;;;;;;;;4952478;28;45702;-74
2023/05/30 09:13:16;;;;;;;;;4.00;3.00;;;;;;;;4952663;28;46115;-75
2023/05/30 09:15:41;;;;;;;;;2.00;2.00;;;;;;;;4952474;28;45692;-75
2023/05/30 09:18:06;;;;;;;;;3.00;3.00;;;;;;;;4953584;28;45704;-75
2023/05/30 09:20:32;;;;;;;;;4.50;2.25;;;;;;;;4955074;28;45635;-76
2023/05/30 09:22:58;;;;;;;;;7.00;1.00;;;;;;;;4950991;28;45808;-76
2023/05/30 09:25:24;;;;;;;;;4.00;2.75;;;;;;;;4949925;28;45769;-76
2023/05/30 09:27:50;;;;;;;;;5.00;3.75;;;;;;;;4949990;28;46213;-74
2023/05/30 09:30:16;;;;;;;;;2.50;1.75;;;;;;;;4953760;28;45490;-75
2023/05/30 09:32:42;;;;;;;;;2.50;1.00;;;;;;;;4967742;28;45963;-74
2023/05/30 09:35:10;;;;;;;;;5.25;4.00;;;;;;;;4954263;28;45950;-75
2023/05/30 09:37:40;;;;;;;;;4.00;3.00;;;;;;;;4955749;28;45561;-73
2023/05/30 09:40:07;;;;;;;;;4.00;4.00;;;;;;;;4944475;28;45660;-74
2023/05/30 09:42:40;;;;;;;;;6.25;4.00;;;;;;;;4952165;28;47450;-73
2023/05/30 09:45:09;;;;;;;;;1.75;1.75;;;;;;;;4949159;28;45556;-74
2023/05/30 09:47:37;;;;;;;;;4.50;3.50;;;;;;;;4957215;28;45512;-74
2023/05/30 09:50:03;;;;;;;;;5.75;2.25;;;;;;;;4960407;28;45793;-74
2023/05/30 09:52:29;;;;;;;;;4.50;3.00;;;;;;;;4969143;28;46153;-73
2023/05/30 09:54:55;;;;;;;;;3.00;3.00;;;;;;;;4959719;28;45838;-75
2023/05/30 09:57:20;;;;;;;;;1.00;1.00;;;;;;;;4943879;28;45820;-74
2023/05/30 09:59:49;;;;;;;;;3.00;3.00;;;;;;;;4946913;28;45437;-74
2023/05/30 10:02:21;;;;;;;;;3.75;3.75;;;;;;;;4960481;28;46297;-73
2023/05/30 10:04:47;;;;;;;;;6.25;5.25;;;;;;;;4957118;28;45843;-74
2023/05/30 10:07:14;;;;;;;;;4.75;3.75;;;;;;;;4961351;28;45524;-74
2023/05/30 10:09:40;;;;;;;;;6.50;3.00;;;;;;;;4961919;28;45534;-74
2023/05/30 10:12:06;;;;;;;;;7.00;5.50;;;;;;;;4948818;28;46162;-76
2023/05/30 10:14:32;;;;;;;;;3.75;3.75;;;;;;;;4947436;28;45551;-74
2023/05/30 10:17:00;;;;;;;;;5.25;3.00;;;;;;;;4950304;28;45906;-74
2023/05/30 10:19:29;;;;;;;;;3.75;3.00;;;;;;;;4953797;28;45838;-76
2023/05/30 10:21:55;;;;;;;;;6.75;4.25;;;;;;;;4964938;28;46734;-77
2023/05/30 10:24:21;;;;;;;;;3.75;2.75;;;;;;;;4946768;28;45970;-76
2023/05/30 10:26:50;;;;;;;;;4.00;3.00;;;;;;;;4954600;28;45416;-77
2023/05/30 10:29:19;;;;;;;;;5.00;4.00;;;;;;;;4948904;28;45776;-76
2023/05/30 10:31:45;;;;;;;;;7.00;2.50;;;;;;;;4952290;28;45471;-79
2023/05/30 10:34:11;;;;;;;;;2.25;2.25;;;;;;;;4947230;28;46658;-79
2023/05/30 10:36:41;;;;;;;;;4.00;4.00;;;;;;;;4953754;28;45493;-76
2023/05/30 10:39:13;;;;;;;;;4.75;3.00;;;;;;;;4941490;28;46002;-76
2023/05/30 10:41:48;;;;;;;;;5.25;3.75;;;;;;;;4948491;28;45594;-77
2023/05/30 10:44:26;;;;;;;;;2.50;2.50;;;;;;;;4946565;28;45815;-81
2023/05/30 10:46:55;;;;;;;;;4.50;3.00;;;;;;;;4946978;28;45627;-75
2023/05/30 10:49:23;;;;;;;;;4.00;4.00;;;;;;;;4950771;28;46173;-77
2023/05/30 10:52:03;;;;;;;;;3.00;3.00;;;;;;;;4952378;28;46274;-77
2023/05/30 10:54:30;;;;;;;;;5.00;2.75;;;;;;;;4954878;28;45467;-77
2023/05/30 10:56:55;;;;;;;;;3.00;3.00;;;;;;;;4951376;28;45429;-76
2023/05/30 10:59:21;;;;;;;;;2.00;2.00;;;;;;;;4956806;28;45648;-75
2023/05/30 11:02:00;;;;;;;;;4.25;2.25;;;;;;;;4957664;28;46122;-74
2023/05/30 11:04:29;;;;;;;;;3.50;2.50;;;;;;;;4968382;28;45810;-75
2023/05/30 11:06:55;;;;;;;;;5.00;4.00;;;;;;;;4949752;28;45489;-74
2023/05/30 11:09:20;;;;;;;;;12.00;5.25;;;;;;;;4947565;28;45800;-75
2023/05/30 11:11:51;;;;;;;;;8.75;5.00;;;;;;;;4952208;28;46205;-74
2023/05/30 11:14:23;;;;;;;;;5.00;3.25;;;;;;;;4947750;28;45558;-76
2023/05/30 11:16:51;;;;;;;;;3.00;3.00;;;;;;;;4966885;28;45729;-75
2023/05/30 11:19:19;;;;;;;;;5.50;4.00;;;;;;;;4955889;28;47161;-73
2023/05/30 11:21:53;;;;;;;;;6.00;3.50;;;;;;;;4956745;28;45843;-75
2023/05/30 11:24:20;;;;;;;;;4.50;3.25;;;;;;;;4954787;28;45898;-75
2023/05/30 11:26:58;;;;;;;;;5.00;3.00;;;;;;;;4961078;28;44886;-75
2023/05/30 11:29:32;;;;;;;;;5.75;2.00;;;;;;;;4956854;28;45641;-75
2023/05/30 11:31:58;;;;;;;;;5.00;3.00;;;;;;;;4956005;28;47277;-75
2023/05/30 11:34:25;;;;;;;;;5.75;4.00;;;;;;;;4953920;28;45858;-75
2023/05/30 11:36:50;;;;;;;;;3.75;3.00;;;;;;;;4961383;28;45435;-76
2023/05/30 11:39:19;;;;;;;;;6.50;2.75;;;;;;;;4963851;28;45751;-76
2023/05/30 11:41:44;;;;;;;;;6.50;4.25;;;;;;;;4963643;28;46361;-76
2023/05/30 11:44:10;;;;;;;;;4.25;4.25;;;;;;;;4960331;28;45846;-74
2023/05/30 11:46:35;;;;;;;;;2.00;2.00;;;;;;;;4957624;28;45692;-74
2023/05/30 11:49:07;;;;;;;;;4.00;3.00;;;;;;;;4958597;28;45899;-75
2023/05/30 11:51:33;;;;;;;;;10.67;4.67;;;;;;;;4955783;28;46986;-77
2023/05/30 11:53:58;;;;;;;;;4.00;2.25;;;;;;;;4962306;28;45345;-73
2023/05/30 11:56:29;;;;;;;;;2.00;2.00;;;;;;;;4970213;28;45667;-75
2023/05/30 11:58:55;;;;;;;;;2.75;2.75;;;;;;;;4953262;28;46177;-76
2023/05/30 12:01:21;;;;;;;;;7.33;4.33;;;;;;;;4953017;28;46315;-75
2023/05/30 12:03:47;;;;;;;;;5.33;3.67;;;;;;;;4968008;28;45642;-75
2023/05/30 12:06:12;;;;;;;;;5.33;4.00;;;;;;;;4959121;28;45486;-75
2023/05/30 12:08:41;;;;;;;;;3.67;3.00;;;;;;;;4964578;28;45413;-74
2023/05/30 12:11:06;;;;;;;;;1.00;1.00;;;;;;;;4951053;28;46289;-74
2023/05/30 12:13:32;;;;;;;;;7.33;5.00;;;;;;;;4958849;28;45483;-75
2023/05/30 12:15:57;;;;;;;;;2.67;2.67;;;;;;;;4954182;28;45755;-74
2023/05/30 12:18:23;;;;;;;;;5.00;5.00;;;;;;;;4956723;28;46661;-76
2023/05/30 12:20:48;;;;;;;;;5.33;2.67;;;;;;;;4957665;28;45482;-74
2023/05/30 12:23:14;;;;;;;;;4.00;4.00;;;;;;;;4956181;28;45987;-75
2023/05/30 12:25:39;;;;;;;;;11.33;8.33;;;;;;;;4947763;28;45810;-76
2023/05/30 12:28:05;;;;;;;;;4.00;3.33;;;;;;;;4956643;28;45582;-76
2023/05/30 12:30:30;;;;;;;;;8.67;5.00;;;;;;;;4969007;28;45508;-74
2023/05/30 12:32:56;;;;;;;;;4.67;4.67;;;;;;;;4956369;28;45784;-76
2023/05/30 12:35:25;;;;;;;;;6.67;5.00;;;;;;;;4956453;28;45836;-75
2023/05/30 12:37:56;;;;;;;;;6.00;4.00;;;;;;;;4958401;28;45742;-75
2023/05/30 12:40:25;;;;;;;;;2.00;2.00;;;;;;;;4955337;28;47036;-75
2023/05/30 12:42:54;;;;;;;;;14.33;10.67;;;;;;;;4957626;28;45559;-75
2023/05/30 12:45:20;;;;;;;;;10.67;7.67;;;;;;;;4954698;28;45590;-76
2023/05/30 12:47:45;;;;;;;;;5.33;3.00;;;;;;;;4959879;28;45398;-76
2023/05/30 12:50:11;;;;;;;;;3.33;2.00;;;;;;;;4948293;28;46095;-76
2023/05/30 12:52:36;;;;;;;;;8.67;7.00;;;;;;;;4957428;28;45433;-75
2023/05/30 12:55:01;;;;;;;;;5.33;5.00;;;;;;;;4967482;28;45739;-75
2023/05/30 12:57:27;;;;;;;;;6.00;4.00;;;;;;;;4957625;28;45819;-74
2023/05/30 12:59:53;;;;;;;;;4.25;2.75;;;;;;;;4956203;28;46997;-75
2023/05/30 13:02:20;;;;;;;;;5.00;4.00;;;;;;;;4952157;28;45725;-75
2023/05/30 13:04:45;;;;;;;;;5.67;4.33;;;;;;;;4960298;28;45642;-76
2023/05/30 13:07:12;;;;;;;;;5.00;5.00;;;;;;;;4949525;28;45393;-74
2023/05/30 13:09:38;;;;;;;;;5.00;3.67;;;;;;;;4954540;28;45456;-74
2023/05/30 13:12:04;;;;;;;;;3.67;3.33;;;;;;;;4957229;28;45880;-75
2023/05/30 13:14:31;;;;;;;;;5.00;3.67;;;;;;;;4958444;28;45506;-73
2023/05/30 13:16:56;;;;;;;;;7.00;3.67;;;;;;;;4983807;28;46331;-75
2023/05/30 13:19:21;;;;;;;;;3.00;2.00;;;;;;;;4952924;28;45640;-74
2023/05/30 13:21:47;;;;;;;;;9.67;5.67;;;;;;;;4951148;28;45511;-74
2023/05/30 13:24:12;;;;;;;;;7.00;3.67;;;;;;;;4965889;28;45779;-73
2023/05/30 13:26:37;;;;;;;;;4.00;3.00;;;;;;;;4947948;28;46337;-75
2023/05/30 13:29:06;;;;;;;;;4.33;3.00;;;;;;;;4959291;28;46287;-75
2023/05/30 13:31:33;;;;;;;;;4.67;4.67;;;;;;;;4970400;28;45741;-76
2023/05/30 13:33:59;;;;;;;;;5.33;4.00;;;;;;;;4978018;28;45444;-77
2023/05/30 13:36:25;;;;;;;;;2.50;2.50;;;;;;;;4957761;28;45521;-75
2023/05/30 13:38:51;;;;;;;;;9.33;4.00;;;;;;;;4955679;28;47574;-74
2023/05/30 13:41:16;;;;;;;;;6.67;5.00;;;;;;;;4955790;28;45657;-75
2023/05/30 13:43:41;;;;;;;;;5.33;2.67;;;;;;;;4955286;28;45398;-77
2023/05/30 13:46:07;;;;;;;;;4.00;4.00;;;;;;;;4956435;28;45788;-76
2023/05/30 13:48:33;;;;;;;;;5.33;4.67;;;;;;;;4955483;28;47368;-74
2023/05/30 13:50:58;;;;;;;;;4.33;3.00;;;;;;;;4956314;28;45861;-75
2023/05/30 13:53:24;;;;;;;;;7.00;6.00;;;;;;;;4962256;28;45715;-75
2023/05/30 13:55:49;;;;;;;;;4.67;4.00;;;;;;;;4961282;28;46457;-75
2023/05/30 13:58:14;;;;;;;;;4.67;3.00;;;;;;;;4951140;28;45475;-77
2023/05/30 14:00:40;;;;;;;;;3.00;3.00;;;;;;;;4961846;28;45437;-77
2023/05/30 14:03:06;;;;;;;;;2.67;2.67;;;;;;;;4965985;28;45674;-76
2023/05/30 14:05:32;;;;;;;;;4.33;3.00;;;;;;;;4958404;28;45392;-77
2023/05/30 14:07:58;;;;;;;;;4.67;3.00;;;;;;;;4961175;28;45358;-76
2023/05/30 14:10:23;;;;;;;;;5.33;1.00;;;;;;;;4964917;28;45377;-75
2023/05/30 14:12:52;;;;;;;;;4.00;1.67;;;;;;;;4950276;28;45775;-75
2023/05/30 14:15:19;;;;;;;;;5.00;4.00;;;;;;;;4965308;28;45471;-77
2023/05/30 14:17:44;;;;;;;;;2.00;2.00;;;;;;;;4957741;28;46820;-76
2023/05/30 14:20:11;;;;;;;;;2.67;2.00;;;;;;;;4958671;28;45357;-77
2023/05/30 14:22:37;;;;;;;;;9.00;6.00;;;;;;;;4961159;28;45438;-76
2023/05/30 14:25:03;;;;;;;;;6.00;5.00;;;;;;;;4960579;28;45526;-74
2023/05/30 14:27:30;;;;;;;;;4.33;4.33;;;;;;;;4944293;28;45628;-75
2023/05/30 14:29:56;;;;;;;;;8.00;3.67;;;;;;;;4957408;28;45919;-75
2023/05/30 14:32:21;;;;;;;;;5.00;5.00;;;;;;;;4959044;28;45976;-75
2023/05/30 14:34:46;;;;;;;;;4.33;4.00;;;;;;;;4949731;28;45412;-77
2023/05/30 14:37:12;;;;;;;;;4.67;4.00;;;;;;;;4946746;28;45798;-81
2023/05/30 14:39:37;;;;;;;;;4.67;4.67;;;;;;;;4945670;28;46176;-76